Time;durP1;ratioP1;P1;durP2;ratioP2;P2;SDS_P1;SDS_P2;PMS_P1;PMS_P2;Temp;Humidity;BMP_temperature;BMP_pressure;BME280_temperature;BME280_humidity;BME280_pressure;Samples;Min_cycle;Max_cycle;Signal;HPM_P1;HPM_P2
2021/11/24 00:00:54;;;;;;;4.50;4.32;;;;;;;4.54;100.00;102353.97;4384655;32;20073;-74
2021/11/24 00:03:19;;;;;;;5.10;3.97;;;;;;;4.58;100.00;102372.16;4362309;32;20061;-73
2021/11/24 00:05:45;;;;;;;3.78;3.58;;;;;;;4.57;100.00;102364.34;4387997;32;20080;-73
2021/11/24 00:08:10;;;;;;;4.47;4.28;;;;;;;4.61;100.00;102366.09;4383622;32;20073;-73
2021/11/24 00:10:36;;;;;;;3.70;3.53;;;;;;;4.58;100.00;102358.28;4377607;32;20085;-73
2021/11/24 00:13:02;;;;;;;4.37;4.18;;;;;;;4.02;100.00;102263.87;4380180;32;20093;-71
2021/11/24 00:15:28;;;;;;;3.30;3.20;;;;;;;4.59;100.00;102360.00;4378790;32;20582;-71
2021/11/24 00:17:53;;;;;;;5.03;4.65;;;;;;;4.59;100.00;102365.19;4383781;32;20441;-71
2021/11/24 00:20:19;;;;;;;5.72;5.30;;;;;;;4.58;100.00;102353.94;4373180;32;20185;-71
2021/11/24 00:22:44;;;;;;;3.92;3.62;;;;;;;4.49;100.00;102340.09;4382472;32;20610;-71
2021/11/24 00:25:09;;;;;;;5.30;5.00;;;;;;;4.49;100.00;102340.97;4367011;32;20065;-72
2021/11/24 00:27:35;;;;;;;4.72;4.22;;;;;;;4.59;100.00;102360.91;4378849;32;20066;-71
2021/11/24 00:30:00;;;;;;;3.70;3.55;;;;;;;4.59;100.00;102355.69;4386679;32;20069;-72
2021/11/24 00:32:26;;;;;;;3.50;3.40;;;;;;;4.58;100.00;102353.09;4379783;32;20149;-72
2021/11/24 00:34:51;;;;;;;4.22;4.03;;;;;;;4.50;100.00;102341.81;4380213;32;20090;-71
2021/11/24 00:37:16;;;;;;;3.30;3.20;;;;;;;4.54;100.00;102340.97;4361293;32;20104;-72
2021/11/24 00:39:42;;;;;;;4.32;4.12;;;;;;;4.62;100.00;102353.97;4380631;32;20072;-71
2021/11/24 00:42:07;;;;;;;5.28;5.07;;;;;;;4.64;100.00;102357.44;4358124;32;20100;-71
2021/11/24 00:44:33;;;;;;;3.50;3.40;;;;;;;4.64;100.00;102358.28;4380138;32;20580;-71
2021/11/24 00:46:58;;;;;;;4.78;4.57;;;;;;;4.63;100.00;102346.16;4372204;32;20065;-71
2021/11/24 00:49:23;;;;;;;3.20;3.10;;;;;;;4.64;100.00;102349.63;4378980;32;20069;-71
2021/11/24 00:51:50;;;;;;;4.45;4.25;;;;;;;4.66;100.00;102343.53;4383590;32;20064;-71
2021/11/24 00:54:15;;;;;;;3.35;3.25;;;;;;;4.68;100.00;102344.41;4361928;32;20084;-72
2021/11/24 00:56:41;;;;;;;3.70;3.55;;;;;;;3.32;100.00;102108.94;4388473;32;20145;-72
2021/11/24 00:59:06;;;;;;;5.12;4.93;;;;;;;4.72;100.00;102342.69;4377780;32;20103;-72
2021/11/24 01:01:31;;;;;;;3.30;3.20;;;;;;;4.61;100.00;102319.28;4380456;32;20145;-71
2021/11/24 01:03:57;;;;;;;4.47;4.28;;;;;;;2.09;100.00;101920.38;4379984;32;20073;-71
2021/11/24 01:06:22;;;;;;;3.42;3.33;;;;;;;4.74;100.00;102335.72;4383017;32;20083;-71
2021/11/24 01:08:48;;;;;;;3.53;3.42;;;;;;;4.74;100.00;102338.34;4383119;32;20092;-71
2021/11/24 01:11:13;;;;;;;3.37;3.28;;;;;;;4.59;100.00;102315.81;4377566;32;20143;-72
2021/11/24 01:13:39;;;;;;;4.68;4.37;;;;;;;4.76;100.00;102339.19;4389673;32;20691;-71
2021/11/24 01:16:04;;;;;;;5.45;5.15;;;;;;;4.75;100.00;102347.84;4378459;32;20505;-71
2021/11/24 01:18:30;;;;;;;3.42;3.33;;;;;;;4.74;100.00;102335.72;4393028;32;20065;-71
2021/11/24 01:20:55;;;;;;;5.70;5.43;;;;;;;4.71;100.00;102334.00;4382446;32;20090;-71
2021/11/24 01:23:21;;;;;;;3.37;3.28;;;;;;;4.71;100.00;102326.22;4378757;32;20605;-71
2021/11/24 01:25:46;;;;;;;3.85;3.65;;;;;;;4.73;100.00;102327.06;4382867;32;20092;-71
2021/11/24 01:28:12;;;;;;;4.40;4.20;;;;;;;4.65;100.00;102318.41;4363362;32;20370;-71
2021/11/24 01:30:37;;;;;;;3.47;3.37;;;;;;;4.35;100.00;102260.41;4383851;32;20068;-71
2021/11/24 01:33:03;;;;;;;5.32;5.12;;;;;;;4.74;100.00;102325.34;4376090;32;20124;-71
2021/11/24 01:35:28;;;;;;;3.85;3.65;;;;;;;4.74;100.00;102323.59;4375293;32;20212;-71
2021/11/24 01:37:53;;;;;;;4.28;4.07;;;;;;;4.75;100.00;102347.84;4377689;32;20073;-71
2021/11/24 01:40:19;;;;;;;4.15;3.85;;;;;;;4.75;100.00;102314.94;4371536;32;20103;-71
2021/11/24 01:42:44;;;;;;;3.25;3.15;;;;;;;4.75;100.00;102327.03;4379044;32;20072;-71
2021/11/24 01:45:10;;;;;;;5.97;5.47;;;;;;;4.75;100.00;102311.44;4363273;32;20584;-71
2021/11/24 01:47:36;;;;;;;3.47;3.30;;;;;;;4.61;100.00;102288.09;4388049;32;20599;-71
2021/11/24 01:50:02;;;;;;;3.20;3.10;;;;;;;4.72;100.00;102309.72;4400767;32;20215;-71
2021/11/24 01:52:30;;;;;;;3.50;3.40;;;;;;;4.69;100.00;102306.25;4383517;32;20123;-71
2021/11/24 01:54:55;;;;;;;4.72;4.53;;;;;;;4.72;100.00;102309.72;4362525;32;20084;-71
2021/11/24 01:57:23;;;;;;;3.35;3.20;;;;;;;4.73;100.00;102305.38;4387326;32;20070;-71
2021/11/24 01:59:49;;;;;;;3.90;3.70;;;;;;;4.72;100.00;102311.47;4388317;32;20606;-71
2021/11/24 02:02:16;;;;;;;4.00;3.80;;;;;;;4.72;100.00;102307.13;4363875;32;20147;-72
2021/11/24 02:04:42;;;;;;;3.30;3.20;;;;;;;4.68;100.00;102313.19;4380507;32;20069;-72
2021/11/24 02:07:07;;;;;;;5.45;5.25;;;;;;;4.66;100.00;102301.94;4361061;32;20418;-71
2021/11/24 02:09:32;;;;;;;3.50;3.40;;;;;;;4.02;100.00;102195.47;4388981;32;20705;-71
2021/11/24 02:11:58;;;;;;;3.30;3.20;;;;;;;4.59;100.00;102302.81;4378711;32;20065;-71
2021/11/24 02:14:24;;;;;;;3.55;3.35;;;;;;;4.55;100.00;102301.06;4370398;32;20061;-71
2021/11/24 02:16:51;;;;;;;3.90;3.70;;;;;;;4.20;100.00;102237.00;4379397;32;20096;-71
2021/11/24 02:19:16;;;;;;;3.30;3.20;;;;;;;4.56;100.00;102290.69;4402037;32;20068;-71
2021/11/24 02:21:46;;;;;;;3.37;3.28;;;;;;;4.55;100.00;102283.75;4382620;32;20058;-71
2021/11/24 02:24:11;;;;;;;6.57;6.03;;;;;;;2.82;100.00;101985.28;4383578;32;20187;-71
2021/11/24 02:26:36;;;;;;;3.47;3.35;;;;;;;4.51;100.00;102269.03;4382585;32;20060;-71
2021/11/24 02:29:02;;;;;;;5.68;5.47;;;;;;;4.49;100.00;102275.09;4377078;32;20068;-72
2021/11/24 02:31:28;;;;;;;3.40;3.30;;;;;;;4.29;100.00;102229.22;4384615;32;20061;-71
2021/11/24 02:33:54;;;;;;;4.32;4.00;;;;;;;4.51;100.00;102258.62;4380204;32;20504;-71
2021/11/24 02:36:20;;;;;;;4.30;4.10;;;;;;;4.54;100.00;102256.03;4384569;32;20065;-71
2021/11/24 02:38:45;;;;;;;3.42;3.33;;;;;;;4.54;100.00;102261.22;4365586;32;20472;-71
2021/11/24 02:41:11;;;;;;;5.60;5.22;;;;;;;4.50;100.00;102254.28;4363203;32;20088;-72
2021/11/24 02:43:36;;;;;;;3.30;3.20;;;;;;;4.52;100.00;102251.69;4381824;32;20119;-71
2021/11/24 02:46:02;;;;;;;3.92;3.75;;;;;;;4.40;100.00;102226.59;4361418;32;20508;-71
2021/11/24 02:48:27;;;;;;;3.25;3.15;;;;;;;4.49;100.00;102246.50;4385181;32;20214;-71
2021/11/24 02:50:54;;;;;;;3.80;3.60;;;;;;;4.49;100.00;102249.97;4374135;32;20453;-72
2021/11/24 02:53:27;;;;;;;3.58;3.37;;;;;;;4.53;100.00;102243.00;4387603;32;20086;-71
2021/11/24 02:55:53;;;;;;;3.28;3.17;;;;;;;2.87;100.00;101980.97;4400627;32;20097;-71
2021/11/24 02:58:18;;;;;;;3.30;3.20;;;;;;;4.17;100.00;102175.53;4399374;32;20077;-71
2021/11/24 03:00:44;;;;;;;3.50;3.40;;;;;;;3.26;100.00;102024.16;4376176;32;20072;-71
2021/11/24 03:03:09;;;;;;;4.25;3.87;;;;;;;4.53;100.00;102238.72;4382914;32;20085;-71
2021/11/24 03:05:34;;;;;;;3.40;3.30;;;;;;;4.53;100.00;102233.50;4376661;32;20082;-71
2021/11/24 03:08:00;;;;;;;5.93;5.62;;;;;;;4.33;100.00;102194.56;4382813;32;20080;-71
2021/11/24 03:10:25;;;;;;;3.20;3.10;;;;;;;4.39;100.00;102217.94;4367301;32;20669;-71
2021/11/24 03:12:51;;;;;;;3.50;3.40;;;;;;;4.54;100.00;102221.38;4376072;32;20207;-71
2021/11/24 03:15:16;;;;;;;3.55;3.45;;;;;;;4.56;100.00;102215.28;4362872;32;20900;-72
2021/11/24 03:17:41;;;;;;;3.30;3.20;;;;;;;4.53;100.00;102217.00;4383312;32;20080;-71
2021/11/24 03:20:08;;;;;;;4.85;4.65;;;;;;;4.51;100.00;102213.56;4374645;32;20078;-71
2021/11/24 03:22:35;;;;;;;3.83;3.62;;;;;;;4.50;100.00;102217.91;4383061;32;20066;-72
2021/11/24 03:25:00;;;;;;;5.30;5.10;;;;;;;4.50;100.00;102206.66;4364788;32;20223;-71
2021/11/24 03:27:27;;;;;;;3.40;3.30;;;;;;;4.52;100.00;102207.50;4386088;32;20172;-71
2021/11/24 03:29:52;;;;;;;3.50;3.40;;;;;;;4.54;100.00;102226.56;4378898;32;20064;-71
2021/11/24 03:32:18;;;;;;;3.40;3.30;;;;;;;2.39;100.00;101835.81;4379608;32;20748;-71
2021/11/24 03:34:43;;;;;;;3.87;3.70;;;;;;;4.03;100.00;102116.66;4370131;32;20441;-71
2021/11/24 03:37:09;;;;;;;3.70;3.60;;;;;;;4.49;100.00;102189.31;4356322;32;20579;-71
2021/11/24 03:39:34;;;;;;;3.40;3.25;;;;;;;4.10;100.00;102120.97;4383056;32;20065;-71
2021/11/24 03:42:00;;;;;;;5.50;5.30;;;;;;;4.51;100.00;102187.56;4389244;32;20076;-72
2021/11/24 03:44:25;;;;;;;3.33;3.22;;;;;;;4.52;100.00;102184.97;4364600;32;20085;-71
2021/11/24 03:46:51;;;;;;;4.18;3.80;;;;;;;4.52;100.00;102173.72;4396009;32;20185;-71
2021/11/24 03:49:16;;;;;;;3.22;3.12;;;;;;;4.45;100.00;102164.19;4389420;32;20083;-71
2021/11/24 03:51:41;;;;;;;3.60;3.40;;;;;;;4.52;100.00;102174.56;4397122;32;20061;-71
2021/11/24 03:54:07;;;;;;;6.20;5.90;;;;;;;4.54;100.00;102175.41;4391092;32;20131;-71
2021/11/24 03:56:32;;;;;;;3.25;3.15;;;;;;;4.53;100.00;102170.22;4399237;32;20110;-71
2021/11/24 03:58:57;;;;;;;4.97;4.78;;;;;;;4.36;100.00;102136.50;4394324;32;20204;-71
2021/11/24 04:01:23;;;;;;;3.50;3.40;;;;;;;4.54;100.00;102161.56;4394835;32;20096;-71
2021/11/24 04:03:49;;;;;;;3.62;3.53;;;;;;;4.43;100.00;102145.13;4396137;32;20132;-71
2021/11/24 04:06:15;;;;;;;3.65;3.55;;;;;;;4.49;100.00;102142.50;4399670;32;20520;-71
2021/11/24 04:08:40;;;;;;;3.40;3.30;;;;;;;4.27;100.00;102098.41;4386191;32;20080;-71
2021/11/24 04:11:05;;;;;;;3.10;3.00;;;;;;;4.58;100.00;102148.53;4394323;32;20076;-72
2021/11/24 04:13:31;;;;;;;3.17;3.08;;;;;;;4.60;100.00;102145.94;4397720;32;20525;-71
2021/11/24 04:15:56;;;;;;;3.28;3.17;;;;;;;4.58;100.00;102145.09;4402307;32;20079;-71
2021/11/24 04:18:22;;;;;;;3.17;3.08;;;;;;;4.59;100.00;102141.59;4396696;32;20528;-71
2021/11/24 04:20:47;;;;;;;3.70;3.60;;;;;;;4.59;100.00;102139.00;4396354;32;20627;-71
2021/11/24 04:23:12;;;;;;;3.05;2.95;;;;;;;4.58;100.00;102134.69;4393644;32;20077;-71
2021/11/24 04:25:38;;;;;;;3.60;3.40;;;;;;;3.62;100.00;101973.06;4401009;32;20103;-71
2021/11/24 04:28:03;;;;;;;4.70;4.50;;;;;;;4.58;100.00;102138.13;4395472;32;20069;-71
2021/11/24 04:30:29;;;;;;;4.25;3.95;;;;;;;4.59;100.00;102131.19;4395586;32;20095;-71
2021/11/24 04:32:54;;;;;;;3.58;3.42;;;;;;;3.31;100.00;101928.19;4397451;32;20065;-71
2021/11/24 04:35:20;;;;;;;4.82;4.53;;;;;;;2.68;100.00;101806.41;4379454;32;20099;-71
2021/11/24 04:37:47;;;;;;;4.05;3.85;;;;;;;4.60;100.00;102125.13;4393844;32;20087;-71
2021/11/24 04:40:12;;;;;;;3.67;3.47;;;;;;;4.58;100.00;102121.69;4360097;32;21147;-71
2021/11/24 04:42:39;;;;;;;3.20;3.10;;;;;;;4.56;100.00;102123.44;4382256;32;20167;-71
2021/11/24 04:45:05;;;;;;;4.80;4.60;;;;;;;4.55;100.00;102117.38;4378613;32;20092;-71
2021/11/24 04:47:30;;;;;;;3.42;3.30;;;;;;;4.57;100.00;102117.34;4381743;32;20625;-71
2021/11/24 04:49:55;;;;;;;4.10;3.90;;;;;;;4.59;100.00;102110.41;4398086;32;20247;-71
2021/11/24 04:52:21;;;;;;;3.20;3.10;;;;;;;4.60;100.00;102118.19;4364242;32;20172;-71
2021/11/24 04:54:46;;;;;;;3.40;3.30;;;;;;;4.47;100.00;102102.66;4378107;32;20069;-71
2021/11/24 04:57:11;;;;;;;3.30;3.20;;;;;;;4.47;100.00;102097.47;4362443;32;21173;-71
2021/11/24 04:59:37;;;;;;;3.87;3.67;;;;;;;4.58;100.00;102121.69;4393687;32;20069;-71
2021/11/24 05:02:03;;;;;;;4.80;4.60;;;;;;;4.59;100.00;102115.59;4376599;32;20151;-71
2021/11/24 05:04:28;;;;;;;3.78;3.58;;;;;;;4.60;100.00;102117.34;4380489;32;20091;-72
2021/11/24 05:06:54;;;;;;;4.18;3.97;;;;;;;4.61;100.00;102119.09;4382686;32;20096;-71
2021/11/24 05:09:19;;;;;;;3.97;3.60;;;;;;;4.60;100.00;102117.34;4366315;32;21438;-71
2021/11/24 05:11:45;;;;;;;3.72;3.40;;;;;;;4.59;100.00;102118.19;4384943;32;20065;-71
2021/11/24 05:14:16;;;;;;;4.45;4.25;;;;;;;4.61;100.00;102108.69;4364735;32;20592;-71
2021/11/24 05:16:44;;;;;;;3.28;3.17;;;;;;;4.60;100.00;102138.13;4370733;32;20254;-71
2021/11/24 05:19:13;;;;;;;5.72;5.43;;;;;;;4.64;100.00;102115.59;4389125;32;20071;-70
2021/11/24 05:21:39;;;;;;;3.67;3.55;;;;;;;4.65;100.00;102118.19;4406770;32;20064;-71
2021/11/24 05:24:05;;;;;;;4.95;4.65;;;;;;;4.67;100.00;102111.25;4408880;32;20137;-70
2021/11/24 05:26:31;;;;;;;3.37;3.28;;;;;;;4.67;100.00;102107.75;4404015;32;20148;-70
2021/11/24 05:28:57;;;;;;;5.30;5.10;;;;;;;4.37;100.00;102068.03;4402879;32;20449;-70
2021/11/24 05:31:23;;;;;;;3.70;3.50;;;;;;;4.67;100.00;102105.16;4383715;32;20099;-70
2021/11/24 05:33:49;;;;;;;3.25;3.15;;;;;;;4.68;100.00;102104.31;4394498;32;20186;-72
2021/11/24 05:36:14;;;;;;;3.72;3.62;;;;;;;4.68;100.00;102101.72;4360354;32;20525;-71
2021/11/24 05:38:40;;;;;;;3.17;3.08;;;;;;;4.68;100.00;102107.75;4378582;32;20101;-71
2021/11/24 05:41:05;;;;;;;5.45;5.25;;;;;;;4.68;100.00;102093.91;4383628;32;20434;-71
2021/11/24 05:43:31;;;;;;;3.40;3.30;;;;;;;4.67;100.00;102099.97;4385216;32;20216;-71
2021/11/24 05:48:23;;;;;;;3.92;3.72;;;;;;;4.66;100.00;102100.84;4381929;32;20076;-71
2021/11/24 05:50:49;;;;;;;3.65;3.45;;;;;;;4.58;100.00;102083.53;4380993;32;20099;-71
2021/11/24 05:53:16;;;;;;;5.07;4.82;;;;;;;4.62;100.00;102097.41;4362668;32;20084;-71
2021/11/24 05:55:42;;;;;;;3.55;3.35;;;;;;;4.64;100.00;102093.06;4394066;32;20679;-70
2021/11/24 05:58:07;;;;;;;3.50;3.40;;;;;;;4.65;100.00;102091.31;4381317;32;20091;-72
2021/11/24 06:00:33;;;;;;;3.25;3.15;;;;;;;4.64;100.00;102093.06;4379308;32;20084;-70
2021/11/24 06:02:59;;;;;;;6.18;5.87;;;;;;;4.47;100.00;102061.06;4376976;32;20073;-70
2021/11/24 06:05:24;;;;;;;12.65;4.47;;;;;;;4.66;100.00;102090.44;4387820;32;20077;-70
2021/11/24 06:07:50;;;;;;;3.40;3.30;;;;;;;4.60;100.00;102089.59;4385543;32;20696;-70
2021/11/24 06:10:15;;;;;;;3.95;3.75;;;;;;;4.33;100.00;102038.62;4380977;32;20092;-71
2021/11/24 06:12:41;;;;;;;3.90;3.70;;;;;;;4.57;100.00;102078.34;4379886;32;20068;-70
2021/11/24 06:15:06;;;;;;;5.25;5.05;;;;;;;4.59;100.00;102081.78;4379205;32;20580;-71
2021/11/24 06:17:32;;;;;;;3.90;3.60;;;;;;;4.58;100.00;102077.47;4399085;32;20098;-70
2021/11/24 06:19:57;;;;;;;4.43;4.22;;;;;;;4.65;100.00;102079.19;4382184;32;20065;-70
2021/11/24 06:22:23;;;;;;;3.72;3.58;;;;;;;4.65;100.00;102081.78;4370792;32;20216;-70
2021/11/24 06:24:48;;;;;;;4.12;3.92;;;;;;;4.68;100.00;102078.31;4381736;32;20076;-70
2021/11/24 06:27:13;;;;;;;4.10;3.90;;;;;;;4.68;100.00;102073.97;4394983;32;20070;-70
2021/11/24 06:29:39;;;;;;;3.40;3.30;;;;;;;4.69;100.00;102073.09;4393916;32;21015;-70
2021/11/24 06:32:04;;;;;;;4.10;3.90;;;;;;;4.70;100.00;102077.41;4383269;32;20528;-70
2021/11/24 06:34:30;;;;;;;3.37;3.28;;;;;;;4.70;100.00;102076.56;4384285;32;20052;-70
2021/11/24 06:36:56;;;;;;;5.62;5.32;;;;;;;4.71;100.00;102079.16;4390782;32;20172;-70
2021/11/24 06:39:22;;;;;;;4.95;4.75;;;;;;;4.72;100.00;102078.28;4360484;32;20115;-70
2021/11/24 06:41:47;;;;;;;3.50;3.40;;;;;;;4.75;100.00;102073.06;4380498;32;20150;-70
2021/11/24 06:44:12;;;;;;;4.28;4.07;;;;;;;4.56;100.00;102038.50;4379341;32;20393;-70
2021/11/24 06:46:38;;;;;;;3.30;3.20;;;;;;;4.68;100.00;102063.56;4383776;32;20505;-70
2021/11/24 06:49:03;;;;;;;5.37;5.07;;;;;;;4.68;100.00;102060.97;4373542;32;20080;-71
2021/11/24 06:51:29;;;;;;;4.25;4.05;;;;;;;4.70;100.00;102063.56;4365719;32;20689;-71
2021/11/24 06:53:54;;;;;;;4.10;3.90;;;;;;;4.57;100.00;102045.44;4385346;32;20065;-70
2021/11/24 06:56:19;;;;;;;3.40;3.30;;;;;;;4.70;100.00;102059.22;4369834;32;20492;-71
2021/11/24 06:58:45;;;;;;;3.35;3.25;;;;;;;4.74;100.00;102062.66;4387367;32;20437;-71
2021/11/24 07:01:10;;;;;;;4.60;4.40;;;;;;;4.75;100.00;102077.37;4364597;32;20069;-71
2021/11/24 07:03:35;;;;;;;3.78;3.50;;;;;;;4.76;100.00;102066.12;4364556;32;20079;-71
2021/11/24 07:06:01;;;;;;;5.00;4.80;;;;;;;4.65;100.00;102045.38;4383041;32;20847;-71
2021/11/24 07:08:26;;;;;;;3.62;3.45;;;;;;;4.65;100.00;102041.91;4363838;32;20238;-71
2021/11/24 07:10:51;;;;;;;3.37;3.28;;;;;;;4.80;100.00;102073.87;4374878;32;20859;-70
2021/11/24 07:13:17;;;;;;;3.28;3.15;;;;;;;4.29;100.00;101974.53;4365245;32;20072;-71
2021/11/24 07:15:42;;;;;;;3.60;3.50;;;;;;;4.70;100.00;102050.56;4367106;32;20530;-70
2021/11/24 07:18:08;;;;;;;4.80;4.60;;;;;;;4.84;100.00;102066.06;4367149;32;20393;-71
2021/11/24 07:20:33;;;;;;;3.60;3.50;;;;;;;4.73;100.00;102042.72;4361912;32;20135;-71
2021/11/24 07:22:59;;;;;;;5.10;4.90;;;;;;;4.87;100.00;102068.63;4384698;32;20122;-70
2021/11/24 07:25:24;;;;;;;3.53;3.42;;;;;;;4.72;100.00;102047.06;4385182;32;20071;-71
2021/11/24 07:27:50;;;;;;;4.18;3.97;;;;;;;4.85;100.00;102073.87;4395010;32;20196;-71
2021/11/24 07:30:18;;;;;;;3.50;3.40;;;;;;;4.86;100.00;102065.19;4381781;32;20138;-71
2021/11/24 07:32:44;;;;;;;3.40;3.30;;;;;;;4.87;100.00;102066.03;4375938;32;20076;-71
2021/11/24 07:35:09;;;;;;;5.28;5.07;;;;;;;4.85;100.00;102053.06;4365880;32;20642;-70
2021/11/24 07:37:35;;;;;;;3.30;3.20;;;;;;;4.91;100.00;102058.22;4378809;32;20685;-70
2021/11/24 07:40:00;;;;;;;6.03;5.72;;;;;;;4.92;100.00;102065.13;4374878;32;20077;-71
2021/11/24 07:42:25;;;;;;;3.58;3.47;;;;;;;4.80;100.00;102037.47;4380178;32;20153;-71
2021/11/24 07:44:54;;;;;;;3.60;3.50;;;;;;;4.98;100.00;102056.44;4380465;32;20469;-70
2021/11/24 07:47:19;;;;;;;3.50;3.40;;;;;;;4.97;100.00;102054.69;4380747;32;20069;-71
2021/11/24 07:51:28;;;;;;;3.40;3.25;;;;;;;4.95;100.00;102040.84;4481559;31;20063;-71
2021/11/24 07:53:53;;;;;;;4.10;3.83;;;;;;;4.95;100.00;102052.12;4439494;31;20572;-70
2021/11/24 07:56:19;;;;;;;3.87;3.67;;;;;;;4.95;100.00;102043.44;4417089;32;20072;-71
2021/11/24 07:58:44;;;;;;;3.70;3.60;;;;;;;4.99;100.00;102047.75;4414967;32;20654;-71
2021/11/24 08:01:09;;;;;;;4.60;4.40;;;;;;;5.02;100.00;102050.34;4415240;32;20077;-71
2021/11/24 08:03:35;;;;;;;3.28;3.17;;;;;;;5.07;100.00;102042.50;4424643;32;20137;-71
2021/11/24 08:06:00;;;;;;;4.85;4.65;;;;;;;5.11;100.00;102054.59;4424486;32;20070;-71
2021/11/24 08:08:26;;;;;;;3.80;3.60;;;;;;;5.15;100.00;102040.69;4421440;32;20075;-71
2021/11/24 08:10:51;;;;;;;3.35;3.25;;;;;;;4.76;100.00;101983.75;4414512;32;20123;-70
2021/11/24 08:13:19;;;;;;;3.30;3.20;;;;;;;5.13;100.00;102034.63;4411856;32;20546;-71
2021/11/24 08:15:45;;;;;;;4.07;3.87;;;;;;;5.17;100.00;102038.94;4414685;32;20464;-71
2021/11/24 08:18:10;;;;;;;4.35;4.15;;;;;;;4.14;100.00;101927.84;4413794;32;20070;-71
2021/11/24 08:20:35;;;;;;;3.35;3.25;;;;;;;5.19;100.00;102027.66;4413815;32;20064;-71
2021/11/24 08:23:01;;;;;;;3.50;3.40;;;;;;;5.20;100.00;102023.31;4412690;32;20118;-71
2021/11/24 08:25:26;;;;;;;3.22;3.12;;;;;;;5.23;100.00;102030.22;4407683;32;20068;-71
2021/11/24 08:27:51;;;;;;;3.60;3.50;;;;;;;5.22;100.00;102021.56;4409196;32;20065;-70
2021/11/24 08:30:17;;;;;;;3.80;3.70;;;;;;;5.29;100.00;102020.63;4407330;32;20574;-71
2021/11/24 08:32:42;;;;;;;3.95;3.75;;;;;;;5.09;100.00;101978.28;4413345;32;20344;-71
2021/11/24 08:35:08;;;;;;;4.68;4.47;;;;;;;5.34;100.00;102015.38;4404649;32;20072;-70
2021/11/24 08:37:33;;;;;;;3.50;3.40;;;;;;;5.39;100.00;102011.88;4409477;32;20056;-69
2021/11/24 08:39:59;;;;;;;4.55;4.35;;;;;;;5.36;100.00;102011.88;4407979;32;20207;-72
2021/11/24 08:42:26;;;;;;;4.68;4.37;;;;;;;5.37;100.00;102005.81;4416707;32;20863;-72
2021/11/24 08:44:52;;;;;;;4.78;3.53;;;;;;;5.50;100.00;101998.72;4413043;32;20521;-70
2021/11/24 08:47:18;;;;;;;3.40;3.30;;;;;;;5.59;100.00;102009.06;4407422;32;20072;-72
2021/11/24 08:49:43;;;;;;;3.35;3.25;;;;;;;5.70;100.00;102000.28;4414206;32;20096;-71
2021/11/24 08:52:09;;;;;;;5.07;4.87;;;;;;;5.49;100.00;101960.56;4421079;32;20088;-71
2021/11/24 08:54:37;;;;;;;3.30;3.20;;;;;;;5.16;100.00;101907.97;4416471;32;20199;-71
2021/11/24 08:57:02;;;;;;;5.45;5.15;;;;;;;5.72;100.00;101996.75;4419783;32;20080;-72
2021/11/24 08:59:28;;;;;;;3.67;3.58;;;;;;;5.71;99.95;101995.06;4414097;32;20110;-72
2021/11/24 09:01:53;;;;;;;3.53;3.42;;;;;;;5.78;99.93;102001.03;4404532;32;20332;-72
2021/11/24 09:04:18;;;;;;;3.40;3.30;;;;;;;5.71;100.00;101966.41;4406962;32;20081;-72
2021/11/24 09:06:44;;;;;;;4.10;3.90;;;;;;;5.89;100.00;101974.84;4399812;32;20084;-71
2021/11/24 09:09:09;;;;;;;4.78;4.57;;;;;;;6.01;99.80;101982.53;4389129;32;20127;-71
2021/11/24 09:11:35;;;;;;;4.53;4.32;;;;;;;6.10;98.61;101979.84;4393033;32;20083;-71
2021/11/24 09:14:00;;;;;;;5.35;5.15;;;;;;;5.88;97.80;101965.31;4396954;32;20883;-70
2021/11/24 09:16:25;;;;;;;4.10;3.90;;;;;;;5.85;97.33;101961.00;4408826;32;20582;-70
2021/11/24 09:18:51;;;;;;;3.53;3.42;;;;;;;4.96;96.99;101821.47;4413379;32;20088;-71
2021/11/24 09:21:19;;;;;;;3.92;3.75;;;;;;;5.97;96.43;101983.47;4417119;32;20091;-70
2021/11/24 09:23:45;;;;;;;3.50;3.40;;;;;;;6.09;96.86;101972.87;4403702;32;20084;-71
2021/11/24 09:26:25;;;;;;;4.72;4.53;;;;;;;5.89;97.48;101912.31;4397107;32;20295;-71
2021/11/24 09:28:51;;;;;;;3.75;3.62;;;;;;;6.25;96.29;101970.09;4402957;32;20570;-70
2021/11/24 09:31:17;;;;;;;4.00;3.83;;;;;;;6.19;95.68;101958.00;4401462;32;20086;-71
2021/11/24 09:33:43;;;;;;;4.75;4.47;;;;;;;6.19;96.13;101960.59;4411185;32;20072;-71
2021/11/24 09:36:09;;;;;;;4.10;3.90;;;;;;;5.73;95.45;101883.91;4403670;32;20115;-71
2021/11/24 09:38:35;;;;;;;4.10;3.90;;;;;;;6.25;95.02;101955.28;4392697;32;20108;-71
2021/11/24 09:41:02;;;;;;;3.67;3.55;;;;;;;6.27;95.79;101950.06;4393762;32;20080;-69
2021/11/24 09:43:28;;;;;;;3.67;3.58;;;;;;;6.28;95.17;101949.19;4394305;32;20073;-69
2021/11/24 09:45:53;;;;;;;4.20;4.00;;;;;;;6.38;95.21;101951.66;4393172;32;20087;-70
2021/11/24 09:48:19;;;;;;;4.32;4.12;;;;;;;6.40;93.87;101941.19;4391385;32;20756;-70
2021/11/24 09:50:46;;;;;;;4.22;4.03;;;;;;;6.35;93.92;101930.84;4390926;32;20147;-70
2021/11/24 09:53:12;;;;;;;4.62;4.43;;;;;;;6.52;93.89;101943.62;4387598;32;20364;-70
2021/11/24 09:55:40;;;;;;;4.50;4.30;;;;;;;6.58;93.81;101929.63;4394820;32;20202;-71
2021/11/24 09:58:05;;;;;;;3.80;3.60;;;;;;;6.74;94.53;101938.06;4405370;32;20894;-69
2021/11/24 10:00:32;;;;;;;4.05;3.85;;;;;;;6.82;94.02;101924.91;4413112;32;20072;-71
2021/11/24 10:02:57;;;;;;;3.90;3.70;;;;;;;6.86;92.82;101926.56;4407939;32;20083;-71
2021/11/24 10:05:24;;;;;;;3.50;3.40;;;;;;;6.79;91.98;101934.50;4404422;32;20096;-71
2021/11/24 10:07:49;;;;;;;4.40;4.20;;;;;;;6.74;92.26;101914.59;4426768;32;20187;-72
2021/11/24 10:10:15;;;;;;;4.28;4.07;;;;;;;6.80;92.00;101924.91;4402429;32;20095;-71
2021/11/24 10:12:40;;;;;;;4.15;3.95;;;;;;;5.99;91.09;101801.91;4412648;32;20084;-75
2021/11/24 10:15:09;;;;;;;5.35;5.15;;;;;;;6.32;92.10;101847.44;4398006;32;20095;-74
2021/11/24 10:17:35;;;;;;;3.85;3.65;;;;;;;6.21;92.41;101864.13;4399605;32;20223;-75
2021/11/24 10:20:10;;;;;;;5.15;4.85;;;;;;;6.63;91.47;101904.31;4412493;32;20061;-76
2021/11/24 10:22:37;;;;;;;3.87;3.72;;;;;;;6.76;91.54;101902.38;4421622;32;20074;-75
2021/11/24 10:25:13;;;;;;;5.60;5.35;;;;;;;6.74;91.88;101871.09;4414125;32;20241;-75
2021/11/24 10:27:44;;;;;;;4.85;4.65;;;;;;;6.06;91.50;101742.75;4415874;32;20072;-74
2021/11/24 10:30:10;;;;;;;6.25;5.90;;;;;;;6.94;90.61;101873.34;4422798;32;20083;-75
2021/11/24 10:32:35;;;;;;;4.15;3.95;;;;;;;6.95;90.85;101874.19;4423338;32;20063;-74
2021/11/24 10:35:01;;;;;;;4.95;4.75;;;;;;;7.03;91.38;101885.34;4407455;32;20119;-75
2021/11/24 10:37:26;;;;;;;5.30;4.93;;;;;;;6.81;89.99;101850.09;4420621;32;20452;-75
2021/11/24 10:40:00;;;;;;;4.05;3.85;;;;;;;5.99;90.18;101688.16;4407897;32;20758;-75
2021/11/24 10:42:39;;;;;;;4.37;4.20;;;;;;;7.17;89.88;101869.44;4412607;32;20060;-75
2021/11/24 10:45:11;;;;;;;3.85;3.65;;;;;;;7.24;89.62;101859.75;4406072;32;20422;-73
2021/11/24 10:47:57;;;;;;;4.07;3.87;;;;;;;6.34;88.45;101702.28;4432773;32;20084;-75
2021/11/24 10:50:26;;;;;;;4.12;3.92;;;;;;;6.81;88.60;101793.56;4415024;32;20089;-76
2021/11/24 10:52:52;;;;;;;3.55;3.45;;;;;;;7.30;88.85;101850.03;4395307;32;20072;-75
2021/11/24 10:55:28;;;;;;;4.37;4.18;;;;;;;6.69;87.69;101729.44;4387009;32;20068;-75
2021/11/24 10:58:17;;;;;;;3.75;3.65;;;;;;;7.33;87.21;101829.06;4401175;32;20069;-75
2021/11/24 11:00:47;;;;;;;3.70;3.60;;;;;;;7.30;86.90;101839.59;4403607;32;20460;-75
2021/11/24 11:03:12;;;;;;;4.70;4.50;;;;;;;6.24;86.03;101645.16;4393125;32;20225;-76
2021/11/24 11:05:42;;;;;;;4.07;3.87;;;;;;;7.29;86.46;101801.31;4390004;32;20080;-74
2021/11/24 11:08:09;;;;;;;5.30;5.10;;;;;;;7.42;85.10;101814.09;4390343;32;20073;-75
2021/11/24 11:10:35;;;;;;;4.05;3.85;;;;;;;7.36;85.64;101817.72;4393915;32;20077;-75
2021/11/24 11:13:01;;;;;;;4.20;4.00;;;;;;;7.45;85.85;101811.44;4403200;32;20077;-74
2021/11/24 11:15:36;;;;;;;4.55;4.22;;;;;;;7.56;85.14;101810.31;4385272;32;20077;-74
2021/11/24 11:18:19;;;;;;;6.37;5.97;;;;;;;7.54;85.57;101806.87;4412508;32;20108;-74
2021/11/24 11:20:49;;;;;;;;;;;;;;;7.53;84.82;101799.06;4393485;32;20571;-74
2021/11/24 11:23:35;;;;;;;4.30;4.03;;;;;;;7.64;85.32;101798.81;4388438;32;19973;-74
2021/11/24 11:26:17;;;;;;;6.20;5.82;;;;;;;7.65;85.05;101790.09;4402831;32;20848;-71